Forside
METAR-TAF:

METAR-TAF

Lufthavne :

John H. Batten Airport

Racine, Wisconsin, USA

Breddekreds: 42-45-31N, længdekreds: 087-49-04W, højde: 205 m

Aktuelle vejr

Denne rapport blev lavet for 1 time og 2 minutter siden, kl. 17:53 UTC
Vind 8 kt fra vestnordvest med vindstød på up til 16 kt
Temperatur 7°C
Fugtighed 26%
Tryk 1026 hPa
Sigt: 16.1 km
skyfri

METAR: KRAC 021753Z AUTO 30008G16KT 10SM CLR 07/M11 A3030 RMK AO2 SLP269 60014 T00671111 10067 21044 58005

Tid: 12:55 (18:55 UTC)


TAF: fraværende

Vejrobservationer og prognoser fra mere end 4000 lufthavne (METAR og TAF).

De gule og røde prikker repræsenterer de meteorologiske stationer.

Flyt musen over at se navnet på stationen.

Så klik over at se vejr observationer og prognoser.

At skifte det kort: Klik på de grønne knapper med et sort kors for at zoome ind; på den grønne knap med en bindestreg for at zoome ud; eller på de grønne pile for tilstødende kort.


METAR-TAF: